createdAt,value
2023-05-22T00:03:45.622Z,51.06
2023-05-22T00:08:50.757Z,50.42
2023-05-22T00:13:54.670Z,51.27
2023-05-22T00:18:58.690Z,50.97
2023-05-22T00:24:04.367Z,50.55
2023-05-22T00:29:07.926Z,49.86
2023-05-22T00:34:11.434Z,50.50
2023-05-22T00:39:16.989Z,50.59
2023-05-22T00:44:20.543Z,50.58
2023-05-22T00:49:24.300Z,51.22
2023-05-22T00:54:30.225Z,50.69
2023-05-22T00:59:34.023Z,50.11
2023-05-22T01:04:38.023Z,50.26
2023-05-22T01:09:42.953Z,50.91
2023-05-22T01:14:52.804Z,51.71
2023-05-22T01:20:07.732Z,51.28
2023-05-22T01:25:34.122Z,49.70
2023-05-22T01:30:48.441Z,49.67
2023-05-22T01:35:54.202Z,50.14
2023-05-22T01:40:58.312Z,50.02
2023-05-22T01:46:03.288Z,50.25
2023-05-22T01:51:10.905Z,49.53
2023-05-22T01:56:16.996Z,51.03
2023-05-22T02:01:22.761Z,50.70
2023-05-22T02:06:27.249Z,50.74
2023-05-22T02:11:33.025Z,50.48
2023-05-22T02:16:38.327Z,50.90
2023-05-22T02:21:42.044Z,50.74
2023-05-22T02:26:45.942Z,49.93
2023-05-22T02:31:50.893Z,50.85
2023-05-22T02:36:54.670Z,49.96
2023-05-22T02:41:58.164Z,50.04
2023-05-22T02:47:03.183Z,50.02
2023-05-22T02:52:06.969Z,50.00
2023-05-22T02:57:10.567Z,51.23
2023-05-22T03:02:16.837Z,50.75
2023-05-22T03:07:21.688Z,50.73
2023-05-22T03:12:25.284Z,50.65
2023-05-22T03:17:30.225Z,51.07
2023-05-22T03:22:33.769Z,50.66
2023-05-22T03:27:37.538Z,50.75
2023-05-22T03:32:42.440Z,51.02
2023-05-22T03:37:46.022Z,50.63
2023-05-22T03:42:50.278Z,51.57
2023-05-22T03:47:55.285Z,51.61
2023-05-22T03:52:58.873Z,51.09
2023-05-22T03:58:02.657Z,51.70
2023-05-22T04:03:13.058Z,51.04
2023-05-22T04:08:16.882Z,52.04
2023-05-22T04:13:20.537Z,50.98
2023-05-22T04:18:25.513Z,50.65
2023-05-22T04:23:29.065Z,51.22
2023-05-22T04:28:33.137Z,50.69
2023-05-22T04:33:38.854Z,50.25
2023-05-22T04:38:45.054Z,50.26
2023-05-22T04:43:48.819Z,50.97
2023-05-22T04:48:53.785Z,50.58
2023-05-22T04:53:58.572Z,50.46
2023-05-22T04:59:02.149Z,50.82
2023-05-22T05:04:07.297Z,50.90
2023-05-22T05:09:11.199Z,50.87
2023-05-22T05:14:14.729Z,50.36
2023-05-22T05:19:21.678Z,50.69
2023-05-22T05:24:25.436Z,50.32
2023-05-22T05:29:30.659Z,51.80
2023-05-22T05:34:35.748Z,50.30
2023-05-22T05:39:39.324Z,51.52
2023-05-22T05:44:43.681Z,51.22
2023-05-22T05:49:48.651Z,50.17
2023-05-22T05:54:52.205Z,51.08
2023-05-22T05:59:55.725Z,51.63
2023-05-22T06:05:00.907Z,51.00
2023-05-22T06:10:04.553Z,50.56
2023-05-22T06:15:08.934Z,51.76
2023-05-22T06:20:15.949Z,50.00
2023-05-22T06:25:19.555Z,51.35
2023-05-22T06:30:43.802Z,50.27
2023-05-22T06:35:48.053Z,51.15
2023-05-22T06:40:51.664Z,50.74
2023-05-22T06:45:55.229Z,51.52
2023-05-22T06:51:00.261Z,51.15
2023-05-22T06:56:03.836Z,51.47
2023-05-22T07:01:08.025Z,50.70
2023-05-22T07:06:13.650Z,51.42
2023-05-22T07:11:17.290Z,51.43
2023-05-22T07:16:21.040Z,51.05
2023-05-22T07:21:26.037Z,50.97
2023-05-22T07:26:30.258Z,51.26
2023-05-22T07:31:34.677Z,51.43
2023-05-22T07:36:40.386Z,51.05
2023-05-22T07:41:50.305Z,52.20
2023-05-22T07:46:54.711Z,51.23
2023-05-22T07:51:59.821Z,51.41
2023-05-22T07:57:04.012Z,52.19
2023-05-22T08:02:10.267Z,51.02
2023-05-22T08:07:15.348Z,52.33
2023-05-22T08:12:19.013Z,52.13
2023-05-22T08:17:22.737Z,51.62
2023-05-22T08:22:27.776Z,51.51
2023-05-22T08:27:31.314Z,51.54
2023-05-22T08:32:34.965Z,51.57
2023-05-22T08:37:39.921Z,52.41
2023-05-22T08:42:43.868Z,51.91
2023-05-22T08:47:48.993Z,52.45
2023-05-22T08:52:54.452Z,52.21
2023-05-22T08:57:58.583Z,51.47
2023-05-22T09:03:02.233Z,50.97
2023-05-22T09:08:18.939Z,51.03
2023-05-22T09:13:28.259Z,51.69
2023-05-22T09:18:32.055Z,51.65
2023-05-22T09:23:37.998Z,51.70
2023-05-22T09:28:41.577Z,52.32
2023-05-22T09:33:46.409Z,51.90
2023-05-22T09:38:51.477Z,51.43
2023-05-22T09:43:54.971Z,52.51
2023-05-22T09:48:58.517Z,51.94
2023-05-22T09:54:06.540Z,51.96
2023-05-22T09:59:10.899Z,51.52
2023-05-22T10:04:15.269Z,52.31
2023-05-22T10:09:23.441Z,51.05
2023-05-22T10:14:28.809Z,51.80
2023-05-22T10:19:33.589Z,51.50
2023-05-22T10:24:38.858Z,51.00
2023-05-22T10:29:48.250Z,52.29
2023-05-22T10:34:55.652Z,52.25
2023-05-22T10:40:05.104Z,52.20
2023-05-22T10:45:09.732Z,51.35
2023-05-22T10:50:13.650Z,51.79
2023-05-22T10:55:24.282Z,51.09
2023-05-22T11:00:31.778Z,51.71
2023-05-22T11:05:36.605Z,52.91
2023-05-22T11:10:59.357Z,51.96
2023-05-22T11:16:06.418Z,53.62
2023-05-22T11:21:13.790Z,52.79
2023-05-22T11:26:27.211Z,52.26
2023-05-22T11:31:31.809Z,53.71
2023-05-22T11:36:35.334Z,53.84
2023-05-22T11:41:40.322Z,52.79
2023-05-22T11:46:43.960Z,53.50
2023-05-22T11:51:50.856Z,52.97
2023-05-22T11:56:55.938Z,53.28
2023-05-22T12:01:59.805Z,53.32
2023-05-22T12:07:03.410Z,52.91
2023-05-22T12:12:11.635Z,53.39
2023-05-22T12:17:16.344Z,53.07
2023-05-22T12:22:23.356Z,52.86
2023-05-22T12:27:32.936Z,53.10
2023-05-22T12:32:37.329Z,53.48
2023-05-22T12:37:40.866Z,53.62
2023-05-22T12:42:46.270Z,52.98
2023-05-22T12:47:49.890Z,53.22
2023-05-22T12:52:53.623Z,53.59
2023-05-22T12:57:58.582Z,53.52
2023-05-22T13:03:03.137Z,53.23
2023-05-22T13:08:06.816Z,52.65
2023-05-22T13:13:11.750Z,53.71
2023-05-22T13:18:15.288Z,53.15
2023-05-22T13:23:18.777Z,54.32
2023-05-22T13:28:23.886Z,54.38
2023-05-22T13:33:27.451Z,54.19
2023-05-22T13:38:31.061Z,53.24
2023-05-22T13:43:35.970Z,52.17
2023-05-22T13:48:40.676Z,51.80
2023-05-22T13:53:44.291Z,53.26
2023-05-22T13:58:49.260Z,52.88
2023-05-22T14:03:52.946Z,53.08
2023-05-22T14:08:56.489Z,53.23
2023-05-22T14:14:01.434Z,52.62
2023-05-22T14:19:05.116Z,53.22
2023-05-22T14:24:08.952Z,52.80
2023-05-22T14:29:13.926Z,53.86
2023-05-22T14:34:18.153Z,53.74
2023-05-22T14:39:21.617Z,53.24
2023-05-22T14:44:26.488Z,53.46
2023-05-22T14:49:30.051Z,54.86
2023-05-22T14:54:34.389Z,54.34
2023-05-22T14:59:39.319Z,54.37
2023-05-22T15:04:42.960Z,53.99
2023-05-22T15:09:46.540Z,54.19
2023-05-22T15:14:51.500Z,54.92
2023-05-22T15:19:55.038Z,53.21
2023-05-22T15:25:05.900Z,53.72
2023-05-22T15:30:12.446Z,54.47
2023-05-22T15:35:16.243Z,54.13
2023-05-22T15:40:22.847Z,53.67
2023-05-22T15:45:27.801Z,53.66
2023-05-22T15:50:31.414Z,54.17
2023-05-22T15:55:35.238Z,54.83
2023-05-22T16:00:42.734Z,54.60
2023-05-22T16:05:47.342Z,54.03
2023-05-22T16:10:50.942Z,55.29
2023-05-22T16:15:56.180Z,54.16
2023-05-22T16:20:59.769Z,55.11
2023-05-22T16:26:03.317Z,55.07
2023-05-22T16:31:08.304Z,55.22
2023-05-22T16:36:11.908Z,54.28
2023-05-22T16:41:15.578Z,54.19
2023-05-22T16:46:20.838Z,54.82
2023-05-22T16:51:24.414Z,54.31
2023-05-22T16:56:28.276Z,54.97
2023-05-22T17:01:33.242Z,55.50
2023-05-22T17:06:36.909Z,54.88
2023-05-22T17:11:40.521Z,54.97
2023-05-22T17:16:45.464Z,53.97
2023-05-22T17:21:49.189Z,55.12
2023-05-22T17:26:52.770Z,55.28
2023-05-22T17:31:57.699Z,55.30
2023-05-22T17:37:01.321Z,55.07
2023-05-22T17:42:05.056Z,56.24
2023-05-22T17:47:10.054Z,56.13
2023-05-22T17:52:13.713Z,55.89
2023-05-22T17:57:17.388Z,56.76
2023-05-22T18:02:22.401Z,56.71
2023-05-22T18:07:26.266Z,56.19
2023-05-22T18:12:31.965Z,57.30
2023-05-22T18:17:37.351Z,56.88
2023-05-22T18:22:41.412Z,57.70
2023-05-22T18:27:44.952Z,56.56
2023-05-22T18:32:49.995Z,57.98
2023-05-22T18:37:53.604Z,57.45
2023-05-22T18:42:57.138Z,56.98
2023-05-22T18:48:02.093Z,58.16
2023-05-22T18:53:07.122Z,57.28
2023-05-22T18:58:11.524Z,57.56
2023-05-22T19:03:16.476Z,57.47
2023-05-22T19:08:20.450Z,58.11
2023-05-22T19:13:23.924Z,57.92
2023-05-22T19:18:28.955Z,57.81
2023-05-22T19:23:33.242Z,58.11
2023-05-22T19:28:36.791Z,57.24
2023-05-22T19:33:41.736Z,57.93
2023-05-22T19:38:45.369Z,57.28
2023-05-22T19:43:48.980Z,57.04
2023-05-22T19:48:53.961Z,57.12
2023-05-22T19:53:57.506Z,57.38
2023-05-22T19:59:01.091Z,57.84
2023-05-22T20:04:06.124Z,58.05
2023-05-22T20:09:10.163Z,57.99
2023-05-22T20:14:14.258Z,57.22
2023-05-22T20:19:19.364Z,57.86
2023-05-22T20:24:25.389Z,57.76
2023-05-22T20:29:28.914Z,57.01
2023-05-22T20:34:34.087Z,57.36
2023-05-22T20:39:38.009Z,57.43
2023-05-22T20:44:41.743Z,57.30
2023-05-22T20:49:46.696Z,57.08
2023-05-22T20:54:50.193Z,56.67
2023-05-22T20:59:54.217Z,57.56
2023-05-22T21:04:59.190Z,57.76
2023-05-22T21:10:02.915Z,57.47
2023-05-22T21:15:07.721Z,56.46
2023-05-22T21:20:13.305Z,57.20
2023-05-22T21:25:16.944Z,58.32
2023-05-22T21:30:20.605Z,57.67
2023-05-22T21:35:25.814Z,57.41
2023-05-22T21:40:29.426Z,57.22
2023-05-22T21:45:32.997Z,57.70
2023-05-22T21:50:38.120Z,57.12
2023-05-22T21:55:41.850Z,58.08
2023-05-22T22:00:45.428Z,57.95
2023-05-22T22:05:50.576Z,57.76
2023-05-22T22:10:54.199Z,58.00
2023-05-22T22:15:58.315Z,57.67
2023-05-22T22:21:03.445Z,58.02
2023-05-22T22:26:07.055Z,58.21
2023-05-22T22:31:10.594Z,58.15
2023-05-22T22:36:15.710Z,57.17
2023-05-22T22:41:19.282Z,57.62
2023-05-22T22:46:23.013Z,57.39
2023-05-22T22:51:28.059Z,58.32
2023-05-22T22:56:31.683Z,57.87
2023-05-22T23:01:35.254Z,57.49
2023-05-22T23:06:41.968Z,58.52
2023-05-22T23:11:45.527Z,57.61
2023-05-22T23:16:49.081Z,57.65
2023-05-22T23:21:54.040Z,58.07
2023-05-22T23:26:57.625Z,58.50
2023-05-22T23:32:01.250Z,57.59
2023-05-22T23:37:06.744Z,58.16
2023-05-22T23:42:11.217Z,58.02
2023-05-22T23:47:14.747Z,57.68
2023-05-22T23:52:19.684Z,57.94
2023-05-22T23:57:23.277Z,57.64
